createdAt,value
2018-06-15T00:00:03.663Z,99.99
2018-06-15T00:01:03.652Z,99.99
2018-06-15T00:02:03.635Z,99.99
2018-06-15T00:03:03.613Z,99.99
2018-06-15T00:04:03.598Z,99.99
2018-06-15T00:05:03.581Z,99.99
2018-06-15T00:06:03.564Z,99.99
2018-06-15T00:07:03.549Z,99.99
2018-06-15T00:08:03.530Z,99.99
2018-06-15T00:09:03.515Z,99.99
2018-06-15T00:10:03.503Z,99.99
2018-06-15T00:11:03.482Z,99.99
2018-06-15T00:12:03.464Z,99.99
2018-06-15T00:13:03.449Z,99.99
2018-06-15T00:14:03.433Z,99.99
2018-06-15T00:15:03.416Z,99.99
2018-06-15T00:16:03.399Z,99.99
2018-06-15T00:17:03.384Z,99.99
2018-06-15T00:18:03.368Z,99.99
2018-06-15T00:19:03.350Z,99.99
2018-06-15T00:20:03.333Z,99.99
2018-06-15T00:21:03.324Z,99.99
2018-06-15T00:22:03.303Z,99.99
2018-06-15T00:23:03.285Z,99.99
2018-06-15T00:24:03.267Z,99.99
2018-06-15T00:25:03.255Z,99.99
2018-06-15T00:26:03.236Z,99.99
2018-06-15T00:27:03.222Z,99.99
2018-06-15T00:28:03.207Z,99.99
2018-06-15T00:29:03.185Z,99.99
2018-06-15T00:30:03.172Z,99.99
2018-06-15T00:31:03.152Z,99.99
2018-06-15T00:32:03.139Z,99.99
2018-06-15T00:33:03.120Z,99.99
2018-06-15T00:34:03.103Z,99.99
2018-06-15T00:35:03.105Z,99.99
2018-06-15T00:36:03.086Z,99.99
2018-06-15T00:37:03.060Z,99.99
2018-06-15T00:38:03.069Z,99.99
2018-06-15T00:39:03.050Z,99.99
2018-06-15T00:40:03.023Z,99.99
2018-06-15T00:41:03.004Z,99.99
2018-06-15T00:42:03.008Z,99.99
2018-06-15T00:43:02.957Z,99.99
2018-06-15T00:44:02.939Z,99.99
2018-06-15T00:45:02.921Z,99.99
2018-06-15T00:46:02.936Z,99.99
2018-06-15T00:47:02.896Z,99.99
2018-06-15T00:48:02.889Z,99.99
2018-06-15T00:49:02.898Z,99.99
2018-06-15T00:50:02.857Z,99.99
2018-06-15T00:51:02.849Z,99.99
2018-06-15T00:52:02.805Z,99.99
2018-06-15T00:53:02.798Z,99.99
2018-06-15T00:54:02.796Z,99.99
2018-06-15T00:55:02.804Z,99.99
2018-06-15T00:56:02.771Z,99.99
2018-06-15T00:57:02.748Z,99.99
2018-06-15T00:58:02.765Z,99.99
2018-06-15T00:59:02.707Z,99.99
2018-06-15T01:00:02.700Z,99.99
2018-06-15T01:01:02.681Z,99.99
2018-06-15T01:02:02.659Z,99.99
2018-06-15T01:03:02.653Z,99.99
2018-06-15T01:04:02.636Z,99.99
2018-06-15T01:05:03.477Z,99.99
2018-06-15T01:06:02.589Z,99.99
2018-06-15T01:07:02.605Z,99.99
2018-06-15T01:08:02.556Z,99.99
2018-06-15T01:09:02.581Z,99.99
2018-06-15T01:10:02.544Z,99.99
2018-06-15T01:11:02.502Z,99.99
2018-06-15T01:12:02.518Z,99.99
2018-06-15T01:13:02.503Z,99.99
2018-06-15T01:14:02.466Z,99.99
2018-06-15T01:15:02.482Z,99.99
2018-06-15T01:16:02.448Z,99.99
2018-06-15T01:17:02.414Z,99.99
2018-06-15T01:18:02.388Z,99.99
2018-06-15T01:19:02.403Z,99.99
2018-06-15T01:20:02.400Z,99.99
2018-06-15T01:21:02.349Z,99.99
2018-06-15T01:22:02.338Z,99.99
2018-06-15T01:23:02.319Z,99.99
2018-06-15T01:24:02.309Z,99.99
2018-06-15T01:25:02.318Z,99.99
2018-06-15T01:26:02.269Z,99.99
2018-06-15T01:27:02.245Z,99.99
2018-06-15T01:28:02.229Z,99.99
2018-06-15T01:29:02.213Z,99.99
2018-06-15T01:30:02.212Z,99.99
2018-06-15T01:31:02.219Z,99.99
2018-06-15T01:32:02.162Z,99.99
2018-06-15T01:33:02.176Z,99.99
2018-06-15T01:34:02.124Z,99.99
2018-06-15T01:35:02.128Z,99.99
2018-06-15T01:36:02.085Z,99.99
2018-06-15T01:37:02.096Z,99.99
2018-06-15T01:38:02.073Z,99.99
2018-06-15T01:39:02.055Z,99.99
2018-06-15T01:40:02.073Z,99.99
2018-06-15T01:41:02.039Z,99.99
2018-06-15T01:42:01.995Z,99.99
2018-06-15T01:43:02.005Z,99.99
2018-06-15T01:44:01.996Z,99.99
2018-06-15T01:45:01.949Z,99.99
2018-06-15T01:46:01.918Z,99.99
2018-06-15T01:47:01.905Z,99.99
2018-06-15T01:48:01.884Z,99.99
2018-06-15T01:49:01.869Z,99.99
2018-06-15T01:50:01.856Z,99.99
2018-06-15T01:51:01.836Z,99.99
2018-06-15T01:52:01.821Z,99.99
2018-06-15T01:53:01.802Z,99.99
2018-06-15T01:54:01.787Z,99.99
2018-06-15T01:55:01.772Z,99.99
2018-06-15T01:56:01.755Z,99.99
2018-06-15T01:57:01.743Z,99.99
2018-06-15T01:58:01.721Z,99.99
2018-06-15T01:59:01.705Z,99.99
2018-06-15T02:00:01.687Z,99.99
2018-06-15T02:01:01.678Z,99.99
2018-06-15T02:02:01.654Z,99.99
2018-06-15T02:03:01.660Z,99.99
2018-06-15T02:04:01.621Z,99.99
2018-06-15T02:05:01.608Z,99.99
2018-06-15T02:06:01.639Z,99.99
2018-06-15T02:07:01.570Z,99.99
2018-06-15T02:08:01.554Z,99.99
2018-06-15T02:09:01.537Z,99.99
2018-06-15T02:10:01.521Z,99.99
2018-06-15T02:11:01.503Z,99.99
2018-06-15T02:12:01.486Z,99.99
2018-06-15T02:13:01.471Z,99.99
2018-06-15T02:14:01.454Z,99.99
2018-06-15T02:15:01.438Z,99.99
2018-06-15T02:16:01.421Z,99.99
2018-06-15T02:17:01.404Z,99.99
2018-06-15T02:18:01.409Z,99.99
2018-06-15T02:19:01.373Z,99.99
2018-06-15T02:20:01.356Z,99.99
2018-06-15T02:21:01.337Z,99.99
2018-06-15T02:22:01.322Z,99.99
2018-06-15T02:23:01.304Z,99.99
2018-06-15T02:24:01.286Z,99.99
2018-06-15T02:25:01.268Z,99.99
2018-06-15T02:26:01.256Z,99.99
2018-06-15T02:27:01.239Z,99.99
2018-06-15T02:28:01.221Z,99.99
2018-06-15T02:29:01.205Z,99.99
2018-06-15T02:30:01.188Z,99.99
2018-06-15T02:31:01.175Z,99.99
2018-06-15T02:32:01.163Z,99.99
2018-06-15T02:33:01.140Z,99.99
2018-06-15T02:34:01.122Z,99.99
2018-06-15T02:35:01.103Z,99.99
2018-06-15T02:36:01.094Z,99.99
2018-06-15T02:37:01.071Z,99.99
2018-06-15T02:38:01.052Z,99.99
2018-06-15T02:39:01.055Z,99.99
2018-06-15T02:40:01.018Z,99.99
2018-06-15T02:41:01.006Z,99.99
2018-06-15T02:42:00.996Z,99.99
2018-06-15T02:43:00.969Z,99.99
2018-06-15T02:44:00.950Z,99.99
2018-06-15T02:45:00.935Z,99.99
2018-06-15T02:46:00.919Z,99.99
2018-06-15T02:47:00.904Z,99.99
2018-06-15T02:48:00.885Z,99.99
2018-06-15T02:49:00.867Z,99.99
2018-06-15T02:50:00.851Z,99.99
2018-06-15T02:51:00.836Z,99.99
2018-06-15T02:52:00.821Z,99.99
2018-06-15T02:53:00.798Z,99.99
2018-06-15T02:54:00.782Z,99.99
2018-06-15T02:55:00.772Z,99.99
2018-06-15T02:56:00.750Z,99.99
2018-06-15T02:57:00.731Z,99.99
2018-06-15T02:58:00.715Z,99.99
2018-06-15T02:59:00.719Z,99.99
2018-06-15T03:00:00.696Z,99.99
2018-06-15T03:01:00.690Z,99.99
2018-06-15T03:02:00.656Z,99.99
2018-06-15T03:03:00.631Z,99.99
2018-06-15T03:04:00.615Z,99.99
2018-06-15T03:05:00.599Z,99.99
2018-06-15T03:06:00.590Z,99.99
2018-06-15T03:07:00.564Z,99.99
2018-06-15T03:08:00.548Z,99.99
2018-06-15T03:09:00.530Z,99.99
2018-06-15T03:10:00.513Z,99.99
2018-06-15T03:11:00.497Z,99.99
2018-06-15T03:12:00.485Z,99.99
2018-06-15T03:13:00.465Z,99.99
2018-06-15T03:14:00.448Z,99.99
2018-06-15T03:15:00.431Z,99.99
2018-06-15T03:16:00.447Z,99.99
2018-06-15T03:17:00.433Z,99.99
2018-06-15T03:18:00.380Z,99.99
2018-06-15T03:19:00.364Z,99.99
2018-06-15T03:20:00.345Z,99.99
2018-06-15T03:21:00.328Z,99.99
2018-06-15T03:22:00.324Z,99.99
2018-06-15T03:23:00.315Z,99.99
2018-06-15T03:24:00.279Z,99.99
2018-06-15T03:25:00.287Z,99.99
2018-06-15T03:26:00.245Z,99.99
2018-06-15T03:27:00.231Z,99.99
2018-06-15T03:28:00.214Z,99.99
2018-06-15T03:29:00.198Z,99.99
2018-06-15T03:30:00.200Z,99.99
2018-06-15T03:31:00.165Z,99.99
2018-06-15T03:32:00.145Z,99.99
2018-06-15T03:33:00.130Z,99.99
2018-06-15T03:34:00.119Z,99.99
2018-06-15T03:35:00.098Z,99.99
2018-06-15T03:36:00.081Z,99.99
2018-06-15T03:37:00.063Z,99.99
2018-06-15T03:38:00.047Z,99.99
2018-06-15T03:39:00.033Z,99.99
2018-06-15T03:40:00.015Z,99.99
2018-06-15T03:40:59.996Z,99.99
2018-06-15T03:41:59.981Z,99.99
2018-06-15T03:42:59.962Z,99.99
2018-06-15T03:43:59.944Z,99.99
2018-06-15T03:44:59.928Z,99.99
2018-06-15T03:45:59.912Z,99.99
2018-06-15T03:46:59.895Z,99.99
2018-06-15T03:47:59.877Z,99.99
2018-06-15T03:48:59.864Z,99.99
2018-06-15T03:49:59.848Z,99.99
2018-06-15T03:50:59.828Z,99.99
2018-06-15T03:51:59.815Z,99.99
2018-06-15T03:52:59.795Z,99.99
2018-06-15T03:53:59.781Z,99.99
2018-06-15T03:54:59.765Z,99.99
2018-06-15T03:55:59.802Z,99.99
2018-06-15T03:56:59.732Z,99.99
2018-06-15T03:57:59.712Z,99.99
2018-06-15T03:58:59.698Z,99.99
2018-06-15T03:59:59.679Z,99.99
2018-06-15T04:00:59.662Z,99.99
2018-06-15T04:01:59.648Z,99.99
2018-06-15T04:02:59.631Z,99.99
2018-06-15T04:03:59.614Z,99.99
2018-06-15T04:04:59.596Z,99.99
2018-06-15T04:05:59.579Z,99.99
2018-06-15T04:06:59.564Z,99.99
2018-06-15T04:07:59.568Z,99.99
2018-06-15T04:08:59.539Z,99.99
2018-06-15T04:09:59.616Z,99.99
2018-06-15T04:10:59.502Z,99.99
2018-06-15T04:11:59.529Z,99.99
2018-06-15T04:12:59.509Z,99.99
2018-06-15T04:13:59.447Z,99.99
2018-06-15T04:14:59.493Z,99.99
2018-06-15T04:15:59.416Z,99.99
2018-06-15T04:16:59.396Z,99.99
2018-06-15T04:17:59.387Z,99.99
2018-06-15T04:18:59.400Z,99.99
2018-06-15T04:19:59.348Z,99.99
2018-06-15T04:20:59.333Z,99.99
2018-06-15T04:21:59.316Z,99.99
2018-06-15T04:22:59.302Z,99.99
2018-06-15T04:23:59.281Z,99.99
2018-06-15T04:24:59.265Z,99.99
2018-06-15T04:25:59.257Z,99.99
2018-06-15T04:26:59.286Z,99.99
2018-06-15T04:27:59.215Z,99.99
2018-06-15T04:28:59.201Z,99.99
2018-06-15T04:29:59.185Z,99.99
2018-06-15T04:30:59.167Z,99.99
2018-06-15T04:31:59.165Z,99.99
2018-06-15T04:32:59.133Z,99.99
2018-06-15T04:33:59.119Z,99.99
2018-06-15T04:34:59.100Z,99.99
2018-06-15T04:35:59.086Z,99.99
2018-06-15T04:36:59.075Z,99.99
2018-06-15T04:37:59.051Z,99.99
2018-06-15T04:38:59.043Z,99.99
2018-06-15T04:39:59.020Z,99.99
2018-06-15T04:40:59.003Z,99.99
2018-06-15T04:41:58.984Z,99.99
2018-06-15T04:42:58.977Z,99.99
2018-06-15T04:43:58.952Z,99.99
2018-06-15T04:44:58.935Z,99.99
2018-06-15T04:45:58.930Z,99.99
2018-06-15T04:46:58.920Z,99.99
2018-06-15T04:47:58.931Z,99.99
2018-06-15T04:48:58.867Z,99.99
2018-06-15T04:49:58.852Z,99.99
2018-06-15T04:50:58.839Z,99.99
2018-06-15T04:51:58.838Z,99.99
2018-06-15T04:52:58.801Z,99.99
2018-06-15T04:53:58.786Z,99.99
2018-06-15T04:54:58.771Z,99.99
2018-06-15T04:55:58.754Z,99.99
2018-06-15T04:56:58.737Z,99.99
2018-06-15T04:57:58.722Z,99.99
2018-06-15T04:58:58.705Z,99.99
2018-06-15T04:59:58.689Z,99.99
2018-06-15T05:00:58.673Z,99.99
2018-06-15T05:01:58.708Z,99.99
2018-06-15T05:02:58.695Z,99.99
2018-06-15T05:03:58.626Z,99.99
2018-06-15T05:04:58.636Z,99.99
2018-06-15T05:05:58.625Z,99.99
2018-06-15T05:06:58.575Z,99.99
2018-06-15T05:07:58.608Z,99.99
2018-06-15T05:08:58.541Z,99.99
2018-06-15T05:09:58.529Z,99.99
2018-06-15T05:10:58.509Z,99.99
2018-06-15T05:11:58.516Z,99.99
2018-06-15T05:12:58.476Z,99.99
2018-06-15T05:13:58.458Z,99.99
2018-06-15T05:14:58.442Z,99.99
2018-06-15T05:15:58.429Z,99.99
2018-06-15T05:16:58.413Z,99.99
2018-06-15T05:17:58.395Z,99.99
2018-06-15T05:18:58.383Z,99.99
2018-06-15T05:19:58.372Z,99.99
2018-06-15T05:20:58.345Z,99.99
2018-06-15T05:21:58.329Z,99.99
2018-06-15T05:22:58.312Z,99.99
2018-06-15T05:23:58.295Z,99.99
2018-06-15T05:24:58.281Z,99.99
2018-06-15T05:25:58.265Z,99.99
2018-06-15T05:26:58.324Z,99.99
2018-06-15T05:27:58.292Z,99.99
2018-06-15T05:28:58.216Z,99.99
2018-06-15T05:29:58.200Z,99.99
2018-06-15T05:30:58.185Z,99.99
2018-06-15T05:31:58.169Z,99.99
2018-06-15T05:32:58.147Z,99.99
2018-06-15T05:33:58.132Z,99.99
2018-06-15T05:34:58.123Z,99.99
2018-06-15T05:35:58.103Z,99.99
2018-06-15T05:36:58.085Z,99.99
2018-06-15T05:37:58.088Z,99.99
2018-06-15T05:38:58.054Z,99.99
2018-06-15T05:39:58.037Z,99.99
2018-06-15T05:40:58.020Z,99.99
2018-06-15T05:41:58.004Z,99.99
2018-06-15T05:42:57.986Z,99.99
2018-06-15T05:43:57.977Z,99.99
2018-06-15T05:44:57.955Z,99.99
2018-06-15T05:45:57.941Z,99.99
2018-06-15T05:46:57.947Z,99.99
2018-06-15T05:47:57.906Z,99.99
2018-06-15T05:48:57.890Z,99.99
2018-06-15T05:49:57.910Z,99.99
2018-06-15T05:50:57.858Z,99.99
2018-06-15T05:51:57.842Z,99.99
2018-06-15T05:52:57.828Z,99.99
2018-06-15T05:53:57.810Z,99.99
2018-06-15T05:54:57.799Z,99.99
2018-06-15T05:55:57.779Z,99.99
2018-06-15T05:56:57.770Z,99.99
2018-06-15T05:57:57.765Z,99.99
2018-06-15T05:58:57.730Z,99.99
2018-06-15T05:59:57.713Z,99.99
2018-06-15T06:00:57.696Z,99.99
2018-06-15T06:01:57.691Z,99.99
2018-06-15T06:02:57.671Z,99.99
2018-06-15T06:03:57.729Z,99.99
2018-06-15T06:04:57.639Z,99.99
2018-06-15T06:05:57.621Z,99.99
2018-06-15T06:06:57.600Z,99.99
2018-06-15T06:07:57.586Z,99.99
2018-06-15T06:08:57.568Z,99.99
2018-06-15T06:09:57.552Z,99.99
2018-06-15T06:10:57.537Z,99.99
2018-06-15T06:11:57.520Z,99.99
2018-06-15T06:12:57.508Z,99.99
2018-06-15T06:13:57.490Z,99.99
2018-06-15T06:14:57.471Z,99.99
2018-06-15T06:15:57.493Z,99.99
2018-06-15T06:16:57.443Z,99.99
2018-06-15T06:17:57.422Z,99.99
2018-06-15T06:18:57.413Z,99.99
2018-06-15T06:19:57.416Z,99.99
2018-06-15T06:20:57.374Z,99.99
2018-06-15T06:21:57.360Z,99.99
2018-06-15T06:22:57.354Z,99.99
2018-06-15T06:23:57.329Z,99.99
2018-06-15T06:24:57.312Z,99.99
2018-06-15T06:25:57.303Z,99.99
2018-06-15T06:26:57.281Z,99.99
2018-06-15T06:27:57.263Z,99.99
2018-06-15T06:28:57.248Z,99.99
2018-06-15T06:29:57.233Z,99.99
2018-06-15T06:30:57.216Z,99.99
2018-06-15T06:31:57.199Z,99.99
2018-06-15T06:32:57.189Z,99.99
2018-06-15T06:33:57.170Z,99.99
2018-06-15T06:34:57.158Z,99.99
2018-06-15T06:35:57.137Z,99.99
2018-06-15T06:36:57.126Z,99.99
2018-06-15T06:37:57.123Z,99.99
2018-06-15T06:38:57.089Z,99.99
2018-06-15T06:39:57.073Z,99.99
2018-06-15T06:40:57.057Z,99.99
2018-06-15T06:41:57.046Z,99.99
2018-06-15T06:42:57.059Z,99.99
2018-06-15T06:43:57.025Z,99.99
2018-06-15T06:44:56.994Z,99.99
2018-06-15T06:45:56.991Z,99.99
2018-06-15T06:46:56.964Z,98.86
2018-06-15T06:47:56.952Z,99.25
2018-06-15T06:48:56.935Z,99.34
2018-06-15T06:49:56.916Z,99.73
2018-06-15T06:50:56.901Z,99.54
2018-06-15T06:51:56.892Z,99.73
2018-06-15T06:52:56.868Z,99.99
2018-06-15T06:53:56.852Z,99.99
2018-06-15T06:54:56.838Z,99.73
2018-06-15T06:55:56.823Z,99.92
2018-06-15T06:56:56.806Z,99.99
2018-06-15T06:57:56.793Z,99.99
2018-06-15T06:58:56.774Z,99.44
2018-06-15T06:59:56.760Z,97.61
2018-06-15T07:00:56.743Z,97.52
2018-06-15T07:01:56.767Z,97.33
2018-06-15T07:02:56.712Z,98.38
2018-06-15T07:03:56.696Z,98.58
2018-06-15T07:04:56.685Z,97.61
2018-06-15T07:05:56.679Z,98.67
2018-06-15T07:06:56.652Z,98.58
2018-06-15T07:07:56.634Z,98.67
2018-06-15T07:08:56.623Z,99.99
2018-06-15T07:09:56.610Z,99.99
2018-06-15T07:10:56.589Z,99.01
2018-06-15T07:11:56.570Z,99.73
2018-06-15T07:12:56.555Z,99.99
2018-06-15T07:13:56.543Z,99.99
2018-06-15T07:14:56.525Z,99.99
2018-06-15T07:15:56.534Z,99.99
2018-06-15T07:16:56.493Z,99.99
2018-06-15T07:17:56.478Z,99.99
2018-06-15T07:18:56.467Z,99.99
2018-06-15T07:19:56.530Z,99.99
2018-06-15T07:20:56.430Z,99.40
2018-06-15T07:21:56.414Z,99.99
2018-06-15T07:22:56.399Z,98.63
2018-06-15T07:23:56.383Z,99.30
2018-06-15T07:24:56.404Z,99.97
2018-06-15T07:25:56.354Z,99.10
2018-06-15T07:26:56.338Z,98.96
2018-06-15T07:27:56.324Z,98.63
2018-06-15T07:28:56.307Z,97.14
2018-06-15T07:29:56.292Z,96.66
2018-06-15T07:30:56.274Z,96.94
2018-06-15T07:31:56.273Z,97.14
2018-06-15T07:32:56.245Z,97.91
2018-06-15T07:33:56.246Z,98.58
2018-06-15T07:34:56.213Z,98.38
2018-06-15T07:35:56.197Z,98.86
2018-06-15T07:36:56.182Z,98.58
2018-06-15T07:37:56.166Z,98.48
2018-06-15T07:38:56.153Z,99.44
2018-06-15T07:39:56.136Z,99.92
2018-06-15T07:40:56.120Z,99.99
2018-06-15T07:41:56.104Z,99.97
2018-06-15T07:42:56.087Z,96.51
2018-06-15T07:43:56.074Z,94.59
2018-06-15T07:44:56.060Z,95.65
2018-06-15T07:45:56.050Z,96.42
2018-06-15T07:46:56.027Z,96.32
2018-06-15T07:47:56.012Z,96.13
2018-06-15T07:48:55.999Z,95.55
2018-06-15T07:49:55.979Z,94.01
2018-06-15T07:50:55.965Z,94.11
2018-06-15T07:51:55.948Z,92.00
2018-06-15T07:52:55.934Z,91.42
2018-06-15T07:53:55.920Z,92.14
2018-06-15T07:54:55.912Z,93.49
2018-06-15T07:55:55.888Z,93.49
2018-06-15T07:56:55.875Z,93.68
2018-06-15T07:57:55.855Z,94.16
2018-06-15T07:58:55.862Z,92.05
2018-06-15T07:59:55.830Z,91.95
2018-06-15T08:00:55.813Z,90.75
2018-06-15T08:01:55.799Z,91.13
2018-06-15T08:02:55.777Z,92.10
2018-06-15T08:03:55.769Z,92.77
2018-06-15T08:04:55.747Z,92.57
2018-06-15T08:05:55.734Z,92.38
2018-06-15T08:06:55.720Z,92.38
2018-06-15T08:07:55.700Z,92.38
2018-06-15T08:08:55.693Z,93.05
2018-06-15T08:09:55.709Z,93.25
2018-06-15T08:10:55.657Z,92.77
2018-06-15T08:11:55.638Z,92.96
2018-06-15T08:12:55.621Z,92.86
2018-06-15T08:13:55.608Z,93.10
2018-06-15T08:14:55.590Z,93.01
2018-06-15T08:15:55.624Z,93.10
2018-06-15T08:16:55.562Z,92.14
2018-06-15T08:17:55.550Z,92.14
2018-06-15T08:18:55.529Z,92.62
2018-06-15T08:19:55.513Z,92.91
2018-06-15T08:20:55.497Z,92.05
2018-06-15T08:21:55.482Z,91.47
2018-06-15T08:22:55.469Z,91.28
2018-06-15T08:23:55.449Z,90.41
2018-06-15T08:24:55.439Z,89.45
2018-06-15T08:25:55.421Z,89.16
2018-06-15T08:26:55.406Z,89.26
2018-06-15T08:27:55.390Z,89.64
2018-06-15T08:28:55.377Z,88.97
2018-06-15T08:29:55.359Z,89.83
2018-06-15T08:30:55.341Z,90.60
2018-06-15T08:31:55.327Z,89.83
2018-06-15T08:32:55.312Z,90.51
2018-06-15T08:33:55.297Z,91.28
2018-06-15T08:34:55.282Z,91.95
2018-06-15T08:35:55.264Z,93.77
2018-06-15T08:36:55.252Z,94.93
2018-06-15T08:37:55.232Z,92.81
2018-06-15T08:38:55.219Z,89.93
2018-06-15T08:39:55.203Z,90.89
2018-06-15T08:40:55.187Z,90.60
2018-06-15T08:41:55.173Z,90.41
2018-06-15T08:42:55.161Z,89.64
2018-06-15T08:43:55.141Z,90.31
2018-06-15T08:44:55.127Z,90.22
2018-06-15T08:45:55.113Z,90.41
2018-06-15T08:46:55.095Z,90.89
2018-06-15T08:47:55.080Z,90.84
2018-06-15T08:48:55.065Z,90.84
2018-06-15T08:49:55.049Z,91.03
2018-06-15T08:50:55.036Z,91.03
2018-06-15T08:51:55.021Z,89.78
2018-06-15T08:52:55.004Z,89.21
2018-06-15T08:53:54.992Z,88.15
2018-06-15T08:54:55.045Z,86.52
2018-06-15T08:55:54.955Z,86.90
2018-06-15T08:56:54.942Z,86.22
2018-06-15T08:57:54.927Z,86.13
2018-06-15T08:58:54.913Z,86.61
2018-06-15T08:59:54.896Z,86.99
2018-06-15T09:00:54.881Z,88.24
2018-06-15T09:01:54.888Z,89.88
2018-06-15T09:02:54.851Z,90.65
2018-06-15T09:03:54.834Z,89.11
2018-06-15T09:04:54.823Z,88.73
2018-06-15T09:05:54.811Z,87.29
2018-06-15T09:06:54.787Z,87.96
2018-06-15T09:07:54.773Z,88.82
2018-06-15T09:08:54.759Z,89.69
2018-06-15T09:09:54.744Z,89.54
2018-06-15T09:10:54.728Z,88.67
2018-06-15T09:11:54.715Z,89.35
2018-06-15T09:12:54.698Z,88.96
2018-06-15T09:13:54.683Z,88.39
2018-06-15T09:14:54.675Z,86.18
2018-06-15T09:15:54.653Z,88.19
2018-06-15T09:16:54.640Z,88.19
2018-06-15T09:17:54.622Z,87.90
2018-06-15T09:18:54.607Z,87.04
2018-06-15T09:19:54.591Z,85.40
2018-06-15T09:20:54.578Z,83.96
2018-06-15T09:21:54.564Z,84.50
2018-06-15T09:22:54.547Z,85.31
2018-06-15T09:23:54.534Z,87.23
2018-06-15T09:24:54.517Z,85.69
2018-06-15T09:25:54.510Z,84.54
2018-06-15T09:26:54.489Z,85.02
2018-06-15T09:27:54.471Z,84.16
2018-06-15T09:28:54.459Z,84.83
2018-06-15T09:29:54.443Z,84.83
2018-06-15T09:30:54.428Z,84.34
2018-06-15T09:31:54.412Z,83.48
2018-06-15T09:32:54.402Z,83.86
2018-06-15T09:33:54.385Z,83.86
2018-06-15T09:34:54.367Z,84.19
2018-06-15T09:35:54.352Z,84.97
2018-06-15T09:36:54.337Z,85.44
2018-06-15T09:37:54.321Z,83.91
2018-06-15T09:38:54.315Z,80.19
2018-06-15T09:39:54.293Z,80.00
2018-06-15T09:40:54.288Z,77.40
2018-06-15T09:41:54.273Z,75.38
2018-06-15T09:42:54.251Z,76.38
2018-06-15T09:43:54.232Z,76.96
2018-06-15T09:44:54.220Z,79.17
2018-06-15T09:45:54.205Z,78.50
2018-06-15T09:46:54.190Z,74.93
2018-06-15T09:47:54.177Z,72.91
2018-06-15T09:48:54.159Z,75.03
2018-06-15T09:49:54.176Z,74.65
2018-06-15T09:50:54.132Z,73.39
2018-06-15T09:51:54.124Z,74.36
2018-06-15T09:52:54.128Z,75.03
2018-06-15T09:53:54.115Z,74.65
2018-06-15T09:54:54.075Z,75.03
2018-06-15T09:55:54.065Z,75.23
2018-06-15T09:56:54.092Z,76.42
2018-06-15T09:57:54.082Z,74.68
2018-06-15T09:58:54.017Z,73.88
2018-06-15T09:59:54.001Z,74.16
2018-06-15T10:00:54.049Z,76.51
2018-06-15T10:01:53.976Z,78.63
2018-06-15T10:02:53.958Z,76.90
2018-06-15T10:03:53.942Z,77.28
2018-06-15T10:04:53.929Z,76.42
2018-06-15T10:05:53.922Z,76.51
2018-06-15T10:06:53.903Z,73.72
2018-06-15T10:07:53.886Z,71.12
2018-06-15T10:08:53.872Z,71.56
2018-06-15T10:09:53.897Z,74.36
2018-06-15T10:10:53.846Z,75.13
2018-06-15T10:11:53.869Z,75.23
2018-06-15T10:12:53.814Z,76.96
2018-06-15T10:13:53.799Z,77.92
2018-06-15T10:14:53.788Z,77.44
2018-06-15T10:15:53.770Z,76.86
2018-06-15T10:16:53.758Z,76.09
2018-06-15T10:17:53.743Z,74.93
2018-06-15T10:18:53.727Z,75.23
2018-06-15T10:19:53.714Z,75.42
2018-06-15T10:20:53.699Z,73.88
2018-06-15T10:21:53.690Z,75.13
2018-06-15T10:22:53.680Z,75.13
2018-06-15T10:23:53.656Z,74.55
2018-06-15T10:24:53.643Z,77.25
2018-06-15T10:25:53.628Z,76.38
2018-06-15T10:26:53.614Z,74.93
2018-06-15T10:27:53.599Z,76.42
2018-06-15T10:28:53.584Z,76.32
2018-06-15T10:29:53.581Z,74.30
2018-06-15T10:30:53.560Z,73.72
2018-06-15T10:31:53.549Z,73.24
2018-06-15T10:32:53.578Z,72.21
2018-06-15T10:33:53.514Z,72.41
2018-06-15T10:34:53.497Z,74.05
2018-06-15T10:35:53.483Z,74.14
2018-06-15T10:36:53.470Z,75.14
2018-06-15T10:37:53.455Z,74.47
2018-06-15T10:38:53.443Z,71.96
2018-06-15T10:39:53.476Z,69.00
2018-06-15T10:40:53.411Z,67.65
2018-06-15T10:41:53.399Z,65.53
2018-06-15T10:42:53.385Z,64.95
2018-06-15T10:43:53.373Z,65.72
2018-06-15T10:44:53.356Z,66.78
2018-06-15T10:45:53.373Z,67.30
2018-06-15T10:46:53.327Z,67.59
2018-06-15T10:47:53.360Z,65.47
2018-06-15T10:48:53.310Z,64.43
2018-06-15T10:49:53.316Z,63.18
2018-06-15T10:50:53.273Z,63.40
2018-06-15T10:51:53.258Z,63.63
2018-06-15T10:52:53.247Z,64.72
2018-06-15T10:53:53.233Z,63.18
2018-06-15T10:54:53.219Z,60.59
2018-06-15T10:55:53.203Z,57.71
2018-06-15T10:56:53.190Z,56.77
2018-06-15T10:57:53.176Z,55.54
2018-06-15T10:58:53.164Z,56.54
2018-06-15T10:59:53.149Z,54.63
2018-06-15T11:00:53.141Z,53.88
2018-06-15T11:01:53.122Z,56.04
2018-06-15T11:02:53.110Z,55.55
2018-06-15T11:03:53.097Z,53.88
2018-06-15T11:04:53.081Z,53.64
2018-06-15T11:05:53.069Z,53.54
2018-06-15T11:06:53.055Z,52.67
2018-06-15T11:07:53.041Z,52.11
2018-06-15T11:08:53.029Z,49.85
2018-06-15T11:09:53.122Z,47.20
2018-06-15T11:10:53.007Z,48.25
2018-06-15T11:11:53.009Z,50.34
2018-06-15T11:12:52.981Z,49.58
2018-06-15T11:13:52.971Z,49.49
2018-06-15T11:14:52.962Z,50.19
2018-06-15T11:15:52.951Z,49.51
2018-06-15T11:16:52.938Z,47.10
2018-06-15T11:17:52.930Z,45.14
2018-06-15T11:18:52.922Z,45.14
2018-06-15T11:19:52.919Z,44.82
2018-06-15T11:20:52.904Z,44.92
2018-06-15T11:21:52.896Z,44.45
2018-06-15T11:22:52.889Z,44.92
2018-06-15T11:23:52.878Z,45.25
2018-06-15T11:24:52.872Z,44.18
2018-06-15T11:25:52.865Z,40.68
2018-06-15T11:26:52.859Z,38.73
2018-06-15T11:27:52.852Z,39.04
2018-06-15T11:28:52.847Z,38.77
2018-06-15T11:29:52.841Z,38.79
2018-06-15T11:30:52.843Z,38.42
2018-06-15T11:31:52.830Z,38.48
2018-06-15T11:32:52.827Z,39.18
2018-06-15T11:33:52.822Z,40.09
2018-06-15T11:34:52.816Z,40.19
2018-06-15T11:35:52.810Z,41.97
2018-06-15T11:36:52.807Z,41.80
2018-06-15T11:37:52.805Z,39.94
2018-06-15T11:38:52.805Z,37.50
2018-06-15T11:39:52.860Z,36.84
2018-06-15T11:40:52.853Z,37.93
2018-06-15T11:41:52.814Z,37.93
2018-06-15T11:42:52.832Z,37.23
2018-06-15T11:43:52.784Z,38.81
2018-06-15T11:44:52.828Z,41.83
2018-06-15T11:45:52.779Z,41.46
2018-06-15T11:46:52.777Z,42.80
2018-06-15T11:47:52.773Z,42.12
2018-06-15T11:48:52.770Z,41.22
2018-06-15T11:49:52.790Z,43.59
2018-06-15T11:50:52.794Z,42.61
2018-06-15T11:51:52.804Z,41.56
2018-06-15T11:52:52.760Z,40.09
2018-06-15T11:53:52.761Z,40.29
2018-06-15T11:54:52.808Z,40.09
2018-06-15T11:55:52.756Z,39.70
2018-06-15T11:56:52.753Z,38.82
2018-06-15T11:57:52.753Z,40.00
2018-06-15T11:58:52.753Z,39.20
2018-06-15T11:59:52.817Z,41.85
2018-06-15T12:00:52.803Z,41.27
2018-06-15T12:01:52.809Z,39.39
2018-06-15T12:02:52.749Z,39.08
2018-06-15T12:03:52.743Z,39.28
2018-06-15T12:04:52.746Z,43.23
2018-06-15T12:05:52.742Z,45.74
2018-06-15T12:06:52.759Z,43.26
2018-06-15T12:07:52.775Z,44.41
2018-06-15T12:08:52.840Z,45.65
2018-06-15T12:09:52.822Z,45.24
2018-06-15T12:10:52.860Z,47.11
2018-06-15T12:11:52.740Z,48.64
2018-06-15T12:12:52.727Z,49.90
2018-06-15T12:13:52.739Z,47.93
2018-06-15T12:14:52.718Z,48.13
2018-06-15T12:15:52.783Z,48.90
2018-06-15T12:16:52.708Z,47.64
2018-06-15T12:17:52.704Z,46.89
2018-06-15T12:18:52.702Z,45.43
2018-06-15T12:19:52.718Z,44.95
2018-06-15T12:20:52.713Z,45.84
2018-06-15T12:21:52.699Z,45.67
2018-06-15T12:22:52.708Z,45.28
2018-06-15T12:23:52.716Z,44.87
2018-06-15T12:24:52.673Z,45.04
2018-06-15T12:25:52.672Z,46.45
2018-06-15T12:26:52.673Z,46.62
2018-06-15T12:27:53.238Z,47.60
2018-06-15T12:28:52.654Z,48.85
2018-06-15T12:29:52.650Z,50.77
2018-06-15T12:30:52.666Z,52.32
2018-06-15T12:31:54.853Z,50.57
2018-06-15T12:32:52.631Z,53.49
2018-06-15T12:33:53.264Z,53.19
2018-06-15T12:34:52.621Z,53.87
2018-06-15T12:35:53.254Z,51.06
2018-06-15T12:36:52.607Z,50.57
2018-06-15T12:37:52.596Z,50.77
2018-06-15T12:38:52.591Z,52.32
2018-06-15T12:39:52.584Z,54.74
2018-06-15T12:40:52.575Z,53.58
2018-06-15T12:41:52.570Z,52.20
2018-06-15T12:42:52.568Z,50.84
2018-06-15T12:43:52.552Z,51.81
2018-06-15T12:44:52.718Z,52.10
2018-06-15T12:45:52.608Z,52.49
2018-06-15T12:46:52.527Z,54.06
2018-06-15T12:47:52.518Z,53.99
2018-06-15T12:48:52.508Z,50.60
2018-06-15T12:49:52.501Z,51.18
2018-06-15T12:50:52.494Z,49.75
2018-06-15T12:51:52.490Z,51.69